sensor_id;sensor_type;location;lat;lon;timestamp;P1;durP1;ratioP1;P2;durP2;ratioP2
479;SDS011;226;48.606;9.096;2023-09-08T00:01:09;12.30;;;8.13;;
479;SDS011;226;48.606;9.096;2023-09-08T00:03:37;10.33;;;7.67;;
479;SDS011;226;48.606;9.096;2023-09-08T00:06:05;13.40;;;7.60;;
479;SDS011;226;48.606;9.096;2023-09-08T00:08:33;12.30;;;7.30;;
479;SDS011;226;48.606;9.096;2023-09-08T00:11:02;16.03;;;7.83;;
479;SDS011;226;48.606;9.096;2023-09-08T00:13:31;15.30;;;7.20;;
479;SDS011;226;48.606;9.096;2023-09-08T00:15:59;25.33;;;8.13;;
479;SDS011;226;48.606;9.096;2023-09-08T00:18:28;14.57;;;7.10;;
479;SDS011;226;48.606;9.096;2023-09-08T00:20:56;10.53;;;6.93;;
479;SDS011;226;48.606;9.096;2023-09-08T00:23:25;11.13;;;7.70;;
479;SDS011;226;48.606;9.096;2023-09-08T00:25:54;14.90;;;7.83;;
479;SDS011;226;48.606;9.096;2023-09-08T00:28:23;9.33;;;6.80;;
479;SDS011;226;48.606;9.096;2023-09-08T00:30:51;10.90;;;7.37;;
479;SDS011;226;48.606;9.096;2023-09-08T00:33:19;13.30;;;7.60;;
479;SDS011;226;48.606;9.096;2023-09-08T00:35:50;11.70;;;7.40;;
479;SDS011;226;48.606;9.096;2023-09-08T00:38:19;10.67;;;7.70;;
479;SDS011;226;48.606;9.096;2023-09-08T00:40:47;10.53;;;7.17;;
479;SDS011;226;48.606;9.096;2023-09-08T00:43:16;9.27;;;6.40;;
479;SDS011;226;48.606;9.096;2023-09-08T00:45:45;15.80;;;7.93;;
479;SDS011;226;48.606;9.096;2023-09-08T00:48:14;11.40;;;7.40;;
479;SDS011;226;48.606;9.096;2023-09-08T00:50:42;12.30;;;7.17;;
479;SDS011;226;48.606;9.096;2023-09-08T00:53:12;10.80;;;7.30;;
479;SDS011;226;48.606;9.096;2023-09-08T00:55:41;14.23;;;8.37;;
479;SDS011;226;48.606;9.096;2023-09-08T00:58:09;13.47;;;7.00;;
479;SDS011;226;48.606;9.096;2023-09-08T01:00:39;14.40;;;8.10;;
479;SDS011;226;48.606;9.096;2023-09-08T01:03:07;13.23;;;7.50;;
479;SDS011;226;48.606;9.096;2023-09-08T01:05:35;13.90;;;7.10;;
479;SDS011;226;48.606;9.096;2023-09-08T01:08:04;11.60;;;7.60;;
479;SDS011;226;48.606;9.096;2023-09-08T01:10:34;10.50;;;7.33;;
479;SDS011;226;48.606;9.096;2023-09-08T01:13:03;9.10;;;6.90;;
479;SDS011;226;48.606;9.096;2023-09-08T01:15:31;11.87;;;7.40;;
479;SDS011;226;48.606;9.096;2023-09-08T01:17:59;16.00;;;6.87;;
479;SDS011;226;48.606;9.096;2023-09-08T01:20:30;27.67;;;7.47;;
479;SDS011;226;48.606;9.096;2023-09-08T01:23:17;11.20;;;6.73;;
479;SDS011;226;48.606;9.096;2023-09-08T01:25:50;13.33;;;7.23;;
479;SDS011;226;48.606;9.096;2023-09-08T01:28:22;9.63;;;7.40;;
479;SDS011;226;48.606;9.096;2023-09-08T01:30:51;9.40;;;6.50;;
479;SDS011;226;48.606;9.096;2023-09-08T01:33:20;10.90;;;7.27;;
479;SDS011;226;48.606;9.096;2023-09-08T01:35:49;9.03;;;6.03;;
479;SDS011;226;48.606;9.096;2023-09-08T01:38:18;6.93;;;6.10;;
479;SDS011;226;48.606;9.096;2023-09-08T01:40:50;7.67;;;5.93;;
479;SDS011;226;48.606;9.096;2023-09-08T01:43:18;13.30;;;6.20;;
479;SDS011;226;48.606;9.096;2023-09-08T01:45:46;11.67;;;8.20;;
479;SDS011;226;48.606;9.096;2023-09-08T01:48:15;11.40;;;6.27;;
479;SDS011;226;48.606;9.096;2023-09-08T01:50:43;13.33;;;7.70;;
479;SDS011;226;48.606;9.096;2023-09-08T01:53:11;11.77;;;7.40;;
479;SDS011;226;48.606;9.096;2023-09-08T01:55:39;11.73;;;6.90;;
479;SDS011;226;48.606;9.096;2023-09-08T01:58:09;19.97;;;7.07;;
479;SDS011;226;48.606;9.096;2023-09-08T02:00:37;11.43;;;6.67;;
479;SDS011;226;48.606;9.096;2023-09-08T02:03:05;12.87;;;6.80;;
479;SDS011;226;48.606;9.096;2023-09-08T02:05:33;12.90;;;6.80;;
479;SDS011;226;48.606;9.096;2023-09-08T02:08:05;8.40;;;6.60;;
479;SDS011;226;48.606;9.096;2023-09-08T02:10:33;11.63;;;6.90;;
479;SDS011;226;48.606;9.096;2023-09-08T02:13:01;11.33;;;7.30;;
479;SDS011;226;48.606;9.096;2023-09-08T02:15:31;16.37;;;8.13;;
479;SDS011;226;48.606;9.096;2023-09-08T02:18:02;10.63;;;7.50;;
479;SDS011;226;48.606;9.096;2023-09-08T02:20:30;16.63;;;7.90;;
479;SDS011;226;48.606;9.096;2023-09-08T02:23:03;13.23;;;7.20;;
479;SDS011;226;48.606;9.096;2023-09-08T02:25:32;16.93;;;7.97;;
479;SDS011;226;48.606;9.096;2023-09-08T02:28:01;10.07;;;6.80;;
479;SDS011;226;48.606;9.096;2023-09-08T02:30:30;15.57;;;6.77;;
479;SDS011;226;48.606;9.096;2023-09-08T02:32:58;13.23;;;6.97;;
479;SDS011;226;48.606;9.096;2023-09-08T02:35:27;10.10;;;6.80;;
479;SDS011;226;48.606;9.096;2023-09-08T02:37:55;10.67;;;7.40;;
479;SDS011;226;48.606;9.096;2023-09-08T02:40:23;14.67;;;7.70;;
479;SDS011;226;48.606;9.096;2023-09-08T02:42:51;11.83;;;7.20;;
479;SDS011;226;48.606;9.096;2023-09-08T02:45:19;10.03;;;7.23;;
479;SDS011;226;48.606;9.096;2023-09-08T02:47:49;11.03;;;6.33;;
479;SDS011;226;48.606;9.096;2023-09-08T02:50:17;10.53;;;7.03;;
479;SDS011;226;48.606;9.096;2023-09-08T02:52:45;11.57;;;6.90;;
479;SDS011;226;48.606;9.096;2023-09-08T02:55:13;12.57;;;7.53;;
479;SDS011;226;48.606;9.096;2023-09-08T02:57:42;29.23;;;8.27;;
479;SDS011;226;48.606;9.096;2023-09-08T03:00:10;10.60;;;6.03;;
479;SDS011;226;48.606;9.096;2023-09-08T03:02:39;9.90;;;7.00;;
479;SDS011;226;48.606;9.096;2023-09-08T03:05:09;8.30;;;6.30;;
479;SDS011;226;48.606;9.096;2023-09-08T03:07:37;11.03;;;6.83;;
479;SDS011;226;48.606;9.096;2023-09-08T03:10:06;9.30;;;6.60;;
479;SDS011;226;48.606;9.096;2023-09-08T03:12:35;9.80;;;6.27;;
479;SDS011;226;48.606;9.096;2023-09-08T03:15:04;11.10;;;6.47;;
479;SDS011;226;48.606;9.096;2023-09-08T03:17:33;16.63;;;8.03;;
479;SDS011;226;48.606;9.096;2023-09-08T03:20:01;9.37;;;6.20;;
479;SDS011;226;48.606;9.096;2023-09-08T03:22:35;12.07;;;8.20;;
479;SDS011;226;48.606;9.096;2023-09-08T03:25:03;14.53;;;7.80;;
479;SDS011;226;48.606;9.096;2023-09-08T03:27:32;12.73;;;7.67;;
479;SDS011;226;48.606;9.096;2023-09-08T03:30:00;7.37;;;5.63;;
479;SDS011;226;48.606;9.096;2023-09-08T03:32:29;12.30;;;7.13;;
479;SDS011;226;48.606;9.096;2023-09-08T03:34:57;12.10;;;7.33;;
479;SDS011;226;48.606;9.096;2023-09-08T03:37:25;13.17;;;8.30;;
479;SDS011;226;48.606;9.096;2023-09-08T03:39:55;11.97;;;6.33;;
479;SDS011;226;48.606;9.096;2023-09-08T03:42:23;10.83;;;7.17;;
479;SDS011;226;48.606;9.096;2023-09-08T03:44:51;9.37;;;6.70;;
479;SDS011;226;48.606;9.096;2023-09-08T03:47:20;10.07;;;6.67;;
479;SDS011;226;48.606;9.096;2023-09-08T03:49:48;12.93;;;7.17;;
479;SDS011;226;48.606;9.096;2023-09-08T03:52:16;11.03;;;6.80;;
479;SDS011;226;48.606;9.096;2023-09-08T03:54:44;6.83;;;6.03;;
479;SDS011;226;48.606;9.096;2023-09-08T03:57:14;10.70;;;6.50;;
479;SDS011;226;48.606;9.096;2023-09-08T03:59:42;9.63;;;6.93;;
479;SDS011;226;48.606;9.096;2023-09-08T04:02:10;11.20;;;7.03;;
479;SDS011;226;48.606;9.096;2023-09-08T04:04:38;13.93;;;6.50;;
479;SDS011;226;48.606;9.096;2023-09-08T04:07:06;11.83;;;7.67;;
479;SDS011;226;48.606;9.096;2023-09-08T04:09:34;11.27;;;6.97;;
479;SDS011;226;48.606;9.096;2023-09-08T04:12:03;11.90;;;6.97;;
479;SDS011;226;48.606;9.096;2023-09-08T04:14:33;14.23;;;6.57;;
479;SDS011;226;48.606;9.096;2023-09-08T04:17:02;10.97;;;7.20;;
479;SDS011;226;48.606;9.096;2023-09-08T04:19:32;10.93;;;7.00;;
479;SDS011;226;48.606;9.096;2023-09-08T04:22:00;9.93;;;7.50;;
479;SDS011;226;48.606;9.096;2023-09-08T04:24:28;12.77;;;7.50;;
479;SDS011;226;48.606;9.096;2023-09-08T04:26:57;12.00;;;7.53;;
479;SDS011;226;48.606;9.096;2023-09-08T04:29:25;12.80;;;6.83;;
479;SDS011;226;48.606;9.096;2023-09-08T04:31:54;14.50;;;6.57;;
479;SDS011;226;48.606;9.096;2023-09-08T04:34:23;14.53;;;7.83;;
479;SDS011;226;48.606;9.096;2023-09-08T04:36:51;9.40;;;6.37;;
479;SDS011;226;48.606;9.096;2023-09-08T04:39:19;11.87;;;6.73;;
479;SDS011;226;48.606;9.096;2023-09-08T04:41:47;10.30;;;6.80;;
479;SDS011;226;48.606;9.096;2023-09-08T04:44:15;12.43;;;9.10;;
479;SDS011;226;48.606;9.096;2023-09-08T04:46:44;11.47;;;7.20;;
479;SDS011;226;48.606;9.096;2023-09-08T04:49:13;11.23;;;7.40;;
479;SDS011;226;48.606;9.096;2023-09-08T04:51:41;10.03;;;7.13;;
479;SDS011;226;48.606;9.096;2023-09-08T04:54:10;12.93;;;7.43;;
479;SDS011;226;48.606;9.096;2023-09-08T04:56:38;10.43;;;7.33;;
479;SDS011;226;48.606;9.096;2023-09-08T04:59:07;11.47;;;7.33;;
479;SDS011;226;48.606;9.096;2023-09-08T05:01:35;11.33;;;7.10;;
479;SDS011;226;48.606;9.096;2023-09-08T05:04:03;14.00;;;9.23;;
479;SDS011;226;48.606;9.096;2023-09-08T05:06:33;13.93;;;8.40;;
479;SDS011;226;48.606;9.096;2023-09-08T05:09:01;14.00;;;7.60;;
479;SDS011;226;48.606;9.096;2023-09-08T05:11:30;11.37;;;7.20;;
479;SDS011;226;48.606;9.096;2023-09-08T05:13:58;11.13;;;7.03;;
479;SDS011;226;48.606;9.096;2023-09-08T05:16:26;12.80;;;7.37;;
479;SDS011;226;48.606;9.096;2023-09-08T05:19:06;12.10;;;7.00;;
479;SDS011;226;48.606;9.096;2023-09-08T05:21:36;9.93;;;6.50;;
479;SDS011;226;48.606;9.096;2023-09-08T05:24:04;13.13;;;8.00;;
479;SDS011;226;48.606;9.096;2023-09-08T05:26:33;13.30;;;7.60;;
479;SDS011;226;48.606;9.096;2023-09-08T05:29:01;13.30;;;7.70;;
479;SDS011;226;48.606;9.096;2023-09-08T05:31:29;14.47;;;8.43;;
479;SDS011;226;48.606;9.096;2023-09-08T05:33:57;11.70;;;6.30;;
479;SDS011;226;48.606;9.096;2023-09-08T05:36:26;10.87;;;7.17;;
479;SDS011;226;48.606;9.096;2023-09-08T05:38:57;11.10;;;7.20;;
479;SDS011;226;48.606;9.096;2023-09-08T05:41:25;10.93;;;6.50;;
479;SDS011;226;48.606;9.096;2023-09-08T05:43:53;11.83;;;6.03;;
479;SDS011;226;48.606;9.096;2023-09-08T05:46:21;15.00;;;7.20;;
479;SDS011;226;48.606;9.096;2023-09-08T05:48:50;11.50;;;6.57;;
479;SDS011;226;48.606;9.096;2023-09-08T05:51:18;9.77;;;6.93;;
479;SDS011;226;48.606;9.096;2023-09-08T05:53:46;10.00;;;6.70;;
479;SDS011;226;48.606;9.096;2023-09-08T05:56:15;11.40;;;6.80;;
479;SDS011;226;48.606;9.096;2023-09-08T05:58:45;9.70;;;7.03;;
479;SDS011;226;48.606;9.096;2023-09-08T06:01:13;10.40;;;7.23;;
479;SDS011;226;48.606;9.096;2023-09-08T06:03:43;10.90;;;7.60;;
479;SDS011;226;48.606;9.096;2023-09-08T06:06:12;11.50;;;7.00;;
479;SDS011;226;48.606;9.096;2023-09-08T06:08:40;9.30;;;6.80;;
479;SDS011;226;48.606;9.096;2023-09-08T06:11:08;12.30;;;7.40;;
479;SDS011;226;48.606;9.096;2023-09-08T06:13:38;12.90;;;8.17;;
479;SDS011;226;48.606;9.096;2023-09-08T06:16:06;10.70;;;6.83;;
479;SDS011;226;48.606;9.096;2023-09-08T06:18:34;9.67;;;7.17;;
479;SDS011;226;48.606;9.096;2023-09-08T06:21:06;11.73;;;7.30;;
479;SDS011;226;48.606;9.096;2023-09-08T06:23:35;13.90;;;7.40;;
479;SDS011;226;48.606;9.096;2023-09-08T06:26:03;9.80;;;6.77;;
479;SDS011;226;48.606;9.096;2023-09-08T06:28:31;11.77;;;7.30;;
479;SDS011;226;48.606;9.096;2023-09-08T06:31:01;13.53;;;7.70;;
479;SDS011;226;48.606;9.096;2023-09-08T06:33:29;13.73;;;7.13;;
479;SDS011;226;48.606;9.096;2023-09-08T06:35:58;11.90;;;7.37;;
479;SDS011;226;48.606;9.096;2023-09-08T06:38:26;14.40;;;7.93;;
479;SDS011;226;48.606;9.096;2023-09-08T06:40:57;11.70;;;6.90;;
479;SDS011;226;48.606;9.096;2023-09-08T06:43:27;14.73;;;9.53;;
479;SDS011;226;48.606;9.096;2023-09-08T06:45:55;11.37;;;8.20;;
479;SDS011;226;48.606;9.096;2023-09-08T06:48:24;12.57;;;7.70;;
479;SDS011;226;48.606;9.096;2023-09-08T06:50:52;11.50;;;7.33;;
479;SDS011;226;48.606;9.096;2023-09-08T06:53:22;18.23;;;8.13;;
479;SDS011;226;48.606;9.096;2023-09-08T06:55:51;10.47;;;7.03;;
479;SDS011;226;48.606;9.096;2023-09-08T06:58:19;15.47;;;7.67;;
479;SDS011;226;48.606;9.096;2023-09-08T07:00:47;15.63;;;8.27;;
479;SDS011;226;48.606;9.096;2023-09-08T07:03:16;13.70;;;8.10;;
479;SDS011;226;48.606;9.096;2023-09-08T07:05:46;13.13;;;8.23;;
479;SDS011;226;48.606;9.096;2023-09-08T07:08:14;12.37;;;8.33;;
479;SDS011;226;48.606;9.096;2023-09-08T07:10:44;16.87;;;9.00;;
479;SDS011;226;48.606;9.096;2023-09-08T07:13:13;17.57;;;8.80;;
479;SDS011;226;48.606;9.096;2023-09-08T07:15:41;12.90;;;8.27;;
479;SDS011;226;48.606;9.096;2023-09-08T07:18:09;16.23;;;8.67;;
479;SDS011;226;48.606;9.096;2023-09-08T07:20:37;13.93;;;10.10;;
479;SDS011;226;48.606;9.096;2023-09-08T07:23:07;12.87;;;8.93;;
479;SDS011;226;48.606;9.096;2023-09-08T07:25:35;11.40;;;8.43;;
479;SDS011;226;48.606;9.096;2023-09-08T07:28:03;12.67;;;8.70;;
479;SDS011;226;48.606;9.096;2023-09-08T07:30:31;13.13;;;9.10;;
479;SDS011;226;48.606;9.096;2023-09-08T07:33:00;14.07;;;8.60;;
479;SDS011;226;48.606;9.096;2023-09-08T07:35:28;12.77;;;8.90;;
479;SDS011;226;48.606;9.096;2023-09-08T07:37:56;16.20;;;9.77;;
479;SDS011;226;48.606;9.096;2023-09-08T07:40:26;16.23;;;10.50;;
479;SDS011;226;48.606;9.096;2023-09-08T07:42:54;13.17;;;9.07;;
479;SDS011;226;48.606;9.096;2023-09-08T07:45:22;16.87;;;10.83;;
479;SDS011;226;48.606;9.096;2023-09-08T07:47:54;18.30;;;9.80;;
479;SDS011;226;48.606;9.096;2023-09-08T07:50:23;15.53;;;10.40;;
479;SDS011;226;48.606;9.096;2023-09-08T07:52:52;20.23;;;10.40;;
479;SDS011;226;48.606;9.096;2023-09-08T07:55:22;17.80;;;10.67;;
479;SDS011;226;48.606;9.096;2023-09-08T07:57:55;12.73;;;9.57;;
479;SDS011;226;48.606;9.096;2023-09-08T08:00:24;13.77;;;9.30;;
479;SDS011;226;48.606;9.096;2023-09-08T08:02:55;12.60;;;9.43;;
479;SDS011;226;48.606;9.096;2023-09-08T08:05:24;15.27;;;9.57;;
479;SDS011;226;48.606;9.096;2023-09-08T08:07:53;13.60;;;8.90;;
479;SDS011;226;48.606;9.096;2023-09-08T08:10:21;13.63;;;8.57;;
479;SDS011;226;48.606;9.096;2023-09-08T08:12:49;14.50;;;9.13;;
479;SDS011;226;48.606;9.096;2023-09-08T08:15:19;13.23;;;9.30;;
479;SDS011;226;48.606;9.096;2023-09-08T08:17:48;10.80;;;8.50;;
479;SDS011;226;48.606;9.096;2023-09-08T08:20:16;11.93;;;8.23;;
479;SDS011;226;48.606;9.096;2023-09-08T08:22:46;10.93;;;8.07;;
479;SDS011;226;48.606;9.096;2023-09-08T08:25:14;15.27;;;9.23;;
479;SDS011;226;48.606;9.096;2023-09-08T08:27:42;13.30;;;9.07;;
479;SDS011;226;48.606;9.096;2023-09-08T08:30:11;13.63;;;9.00;;
479;SDS011;226;48.606;9.096;2023-09-08T08:32:41;16.20;;;8.90;;
479;SDS011;226;48.606;9.096;2023-09-08T08:35:09;10.50;;;7.70;;
479;SDS011;226;48.606;9.096;2023-09-08T08:37:39;11.53;;;8.50;;
479;SDS011;226;48.606;9.096;2023-09-08T08:40:09;14.40;;;8.77;;
479;SDS011;226;48.606;9.096;2023-09-08T08:42:39;9.90;;;7.33;;
479;SDS011;226;48.606;9.096;2023-09-08T08:45:08;11.30;;;8.00;;
479;SDS011;226;48.606;9.096;2023-09-08T08:47:38;10.07;;;7.60;;
479;SDS011;226;48.606;9.096;2023-09-08T08:50:09;7.77;;;6.90;;
479;SDS011;226;48.606;9.096;2023-09-08T08:52:38;10.13;;;7.60;;
479;SDS011;226;48.606;9.096;2023-09-08T08:55:07;9.97;;;8.10;;
479;SDS011;226;48.606;9.096;2023-09-08T08:57:36;8.73;;;7.13;;
479;SDS011;226;48.606;9.096;2023-09-08T09:00:05;16.83;;;8.40;;
479;SDS011;226;48.606;9.096;2023-09-08T09:02:36;10.07;;;6.80;;
479;SDS011;226;48.606;9.096;2023-09-08T09:05:09;11.53;;;7.10;;
479;SDS011;226;48.606;9.096;2023-09-08T09:07:39;12.40;;;7.00;;
479;SDS011;226;48.606;9.096;2023-09-08T09:10:08;12.83;;;7.43;;
479;SDS011;226;48.606;9.096;2023-09-08T09:12:37;13.13;;;8.10;;
479;SDS011;226;48.606;9.096;2023-09-08T09:15:06;10.23;;;7.30;;
479;SDS011;226;48.606;9.096;2023-09-08T09:17:35;9.30;;;7.10;;
479;SDS011;226;48.606;9.096;2023-09-08T09:20:14;9.47;;;6.90;;
479;SDS011;226;48.606;9.096;2023-09-08T09:22:44;17.30;;;8.00;;
479;SDS011;226;48.606;9.096;2023-09-08T09:25:20;9.33;;;7.17;;
479;SDS011;226;48.606;9.096;2023-09-08T09:27:50;10.80;;;7.40;;
479;SDS011;226;48.606;9.096;2023-09-08T09:30:20;8.53;;;6.60;;
479;SDS011;226;48.606;9.096;2023-09-08T09:32:48;9.37;;;6.47;;
479;SDS011;226;48.606;9.096;2023-09-08T09:35:40;10.80;;;7.40;;
479;SDS011;226;48.606;9.096;2023-09-08T09:38:09;7.50;;;6.80;;
479;SDS011;226;48.606;9.096;2023-09-08T09:40:38;6.63;;;5.93;;
479;SDS011;226;48.606;9.096;2023-09-08T09:43:06;11.70;;;7.87;;
479;SDS011;226;48.606;9.096;2023-09-08T09:45:35;9.20;;;7.20;;
479;SDS011;226;48.606;9.096;2023-09-08T09:48:05;11.00;;;7.63;;
479;SDS011;226;48.606;9.096;2023-09-08T09:50:36;14.10;;;7.30;;
479;SDS011;226;48.606;9.096;2023-09-08T09:53:09;10.93;;;7.50;;
479;SDS011;226;48.606;9.096;2023-09-08T09:55:38;10.00;;;7.30;;
479;SDS011;226;48.606;9.096;2023-09-08T09:58:07;10.00;;;7.43;;
479;SDS011;226;48.606;9.096;2023-09-08T10:00:37;11.60;;;8.67;;
479;SDS011;226;48.606;9.096;2023-09-08T10:03:07;10.33;;;7.23;;
479;SDS011;226;48.606;9.096;2023-09-08T10:05:37;11.83;;;7.00;;
479;SDS011;226;48.606;9.096;2023-09-08T10:08:05;10.43;;;6.87;;
479;SDS011;226;48.606;9.096;2023-09-08T10:10:35;12.93;;;8.00;;
479;SDS011;226;48.606;9.096;2023-09-08T10:13:05;7.33;;;6.00;;
479;SDS011;226;48.606;9.096;2023-09-08T10:15:34;9.20;;;7.40;;
479;SDS011;226;48.606;9.096;2023-09-08T10:18:04;9.80;;;7.23;;
479;SDS011;226;48.606;9.096;2023-09-08T10:20:33;10.30;;;7.67;;
479;SDS011;226;48.606;9.096;2023-09-08T10:23:06;9.33;;;7.13;;
479;SDS011;226;48.606;9.096;2023-09-08T10:25:42;10.43;;;7.00;;
479;SDS011;226;48.606;9.096;2023-09-08T10:28:19;9.57;;;7.50;;
479;SDS011;226;48.606;9.096;2023-09-08T10:30:49;11.10;;;7.70;;
479;SDS011;226;48.606;9.096;2023-09-08T10:33:18;9.13;;;7.70;;
479;SDS011;226;48.606;9.096;2023-09-08T10:35:47;9.73;;;7.10;;
479;SDS011;226;48.606;9.096;2023-09-08T10:38:22;10.30;;;7.37;;
479;SDS011;226;48.606;9.096;2023-09-08T10:40:53;9.07;;;7.57;;
479;SDS011;226;48.606;9.096;2023-09-08T10:43:42;12.63;;;7.43;;
479;SDS011;226;48.606;9.096;2023-09-08T10:46:10;9.83;;;7.47;;
479;SDS011;226;48.606;9.096;2023-09-08T10:48:48;10.23;;;7.10;;
479;SDS011;226;48.606;9.096;2023-09-08T10:51:18;6.90;;;6.20;;
479;SDS011;226;48.606;9.096;2023-09-08T10:53:48;9.97;;;7.10;;
479;SDS011;226;48.606;9.096;2023-09-08T10:56:18;8.30;;;6.40;;
479;SDS011;226;48.606;9.096;2023-09-08T10:58:48;10.23;;;6.03;;
479;SDS011;226;48.606;9.096;2023-09-08T11:01:18;7.47;;;5.77;;
479;SDS011;226;48.606;9.096;2023-09-08T11:03:49;8.50;;;6.50;;
479;SDS011;226;48.606;9.096;2023-09-08T11:06:18;9.17;;;6.97;;
479;SDS011;226;48.606;9.096;2023-09-08T11:08:48;7.80;;;6.83;;
479;SDS011;226;48.606;9.096;2023-09-08T11:11:21;8.17;;;7.10;;
479;SDS011;226;48.606;9.096;2023-09-08T11:13:49;8.83;;;7.00;;
479;SDS011;226;48.606;9.096;2023-09-08T11:16:17;10.70;;;6.83;;
479;SDS011;226;48.606;9.096;2023-09-08T11:18:50;7.27;;;6.57;;
479;SDS011;226;48.606;9.096;2023-09-08T11:21:19;6.40;;;5.70;;
479;SDS011;226;48.606;9.096;2023-09-08T11:23:47;9.17;;;6.67;;
479;SDS011;226;48.606;9.096;2023-09-08T11:26:15;8.53;;;6.60;;
479;SDS011;226;48.606;9.096;2023-09-08T11:28:45;9.23;;;7.10;;
479;SDS011;226;48.606;9.096;2023-09-08T11:31:15;9.23;;;7.23;;
479;SDS011;226;48.606;9.096;2023-09-08T11:33:44;11.80;;;5.97;;
479;SDS011;226;48.606;9.096;2023-09-08T11:36:16;8.53;;;6.80;;
479;SDS011;226;48.606;9.096;2023-09-08T11:38:45;9.50;;;8.00;;
479;SDS011;226;48.606;9.096;2023-09-08T11:41:14;7.30;;;6.13;;
479;SDS011;226;48.606;9.096;2023-09-08T11:43:42;7.37;;;6.63;;
479;SDS011;226;48.606;9.096;2023-09-08T11:46:12;12.07;;;6.80;;
479;SDS011;226;48.606;9.096;2023-09-08T11:48:41;13.10;;;7.17;;
479;SDS011;226;48.606;9.096;2023-09-08T11:51:10;7.33;;;6.50;;
479;SDS011;226;48.606;9.096;2023-09-08T11:53:38;8.60;;;6.57;;
479;SDS011;226;48.606;9.096;2023-09-08T11:56:06;7.30;;;6.60;;
479;SDS011;226;48.606;9.096;2023-09-08T11:58:35;8.07;;;7.27;;
479;SDS011;226;48.606;9.096;2023-09-08T12:01:04;9.50;;;7.13;;
479;SDS011;226;48.606;9.096;2023-09-08T12:03:34;8.90;;;6.70;;
479;SDS011;226;48.606;9.096;2023-09-08T12:06:18;7.67;;;6.30;;
479;SDS011;226;48.606;9.096;2023-09-08T12:08:46;6.93;;;6.10;;
479;SDS011;226;48.606;9.096;2023-09-08T12:11:14;10.77;;;6.23;;
479;SDS011;226;48.606;9.096;2023-09-08T12:13:42;6.67;;;6.00;;
479;SDS011;226;48.606;9.096;2023-09-08T12:16:17;8.83;;;6.10;;
479;SDS011;226;48.606;9.096;2023-09-08T12:18:48;7.80;;;6.73;;
479;SDS011;226;48.606;9.096;2023-09-08T12:21:17;15.33;;;6.30;;
479;SDS011;226;48.606;9.096;2023-09-08T12:23:48;6.23;;;5.63;;
479;SDS011;226;48.606;9.096;2023-09-08T12:26:18;8.10;;;6.03;;
479;SDS011;226;48.606;9.096;2023-09-08T12:28:46;6.33;;;5.63;;
479;SDS011;226;48.606;9.096;2023-09-08T12:31:15;8.20;;;6.10;;
479;SDS011;226;48.606;9.096;2023-09-08T12:33:44;6.13;;;5.53;;
479;SDS011;226;48.606;9.096;2023-09-08T12:36:14;8.30;;;6.37;;
479;SDS011;226;48.606;9.096;2023-09-08T12:38:46;9.77;;;6.37;;
479;SDS011;226;48.606;9.096;2023-09-08T12:41:16;5.77;;;5.10;;
479;SDS011;226;48.606;9.096;2023-09-08T12:43:44;7.30;;;5.23;;
479;SDS011;226;48.606;9.096;2023-09-08T12:46:13;7.63;;;5.80;;
479;SDS011;226;48.606;9.096;2023-09-08T12:48:44;8.30;;;6.67;;
479;SDS011;226;48.606;9.096;2023-09-08T12:51:13;7.10;;;5.30;;
479;SDS011;226;48.606;9.096;2023-09-08T12:53:41;6.93;;;6.13;;
479;SDS011;226;48.606;9.096;2023-09-08T12:56:09;7.33;;;5.63;;
479;SDS011;226;48.606;9.096;2023-09-08T12:58:37;6.73;;;5.80;;
479;SDS011;226;48.606;9.096;2023-09-08T13:01:06;7.50;;;6.43;;
479;SDS011;226;48.606;9.096;2023-09-08T13:03:34;8.90;;;6.30;;
479;SDS011;226;48.606;9.096;2023-09-08T13:06:02;7.40;;;6.53;;
479;SDS011;226;48.606;9.096;2023-09-08T13:08:31;6.50;;;5.43;;
479;SDS011;226;48.606;9.096;2023-09-08T13:11:00;7.63;;;6.30;;
479;SDS011;226;48.606;9.096;2023-09-08T13:13:28;9.70;;;6.60;;
479;SDS011;226;48.606;9.096;2023-09-08T13:15:57;10.43;;;6.87;;
479;SDS011;226;48.606;9.096;2023-09-08T13:18:25;11.33;;;6.47;;
479;SDS011;226;48.606;9.096;2023-09-08T13:20:53;7.97;;;5.80;;
479;SDS011;226;48.606;9.096;2023-09-08T13:23:22;7.90;;;6.20;;
479;SDS011;226;48.606;9.096;2023-09-08T13:25:51;6.50;;;5.77;;
479;SDS011;226;48.606;9.096;2023-09-08T13:28:19;7.10;;;6.20;;
479;SDS011;226;48.606;9.096;2023-09-08T13:30:47;7.60;;;6.50;;
479;SDS011;226;48.606;9.096;2023-09-08T13:33:16;11.17;;;6.40;;
479;SDS011;226;48.606;9.096;2023-09-08T13:35:44;7.37;;;5.50;;
479;SDS011;226;48.606;9.096;2023-09-08T13:38:12;7.20;;;6.37;;
479;SDS011;226;48.606;9.096;2023-09-08T13:40:40;11.87;;;6.40;;
479;SDS011;226;48.606;9.096;2023-09-08T13:43:09;7.90;;;6.60;;
479;SDS011;226;48.606;9.096;2023-09-08T13:45:38;8.07;;;5.63;;
479;SDS011;226;48.606;9.096;2023-09-08T13:48:09;6.33;;;5.40;;
479;SDS011;226;48.606;9.096;2023-09-08T13:50:48;6.87;;;6.17;;
479;SDS011;226;48.606;9.096;2023-09-08T13:53:18;8.00;;;5.00;;
479;SDS011;226;48.606;9.096;2023-09-08T13:55:47;5.70;;;5.10;;
479;SDS011;226;48.606;9.096;2023-09-08T13:58:19;5.87;;;5.23;;
479;SDS011;226;48.606;9.096;2023-09-08T14:00:51;6.90;;;5.20;;
479;SDS011;226;48.606;9.096;2023-09-08T14:03:25;6.53;;;5.33;;
479;SDS011;226;48.606;9.096;2023-09-08T14:05:56;6.33;;;5.63;;
479;SDS011;226;48.606;9.096;2023-09-08T14:08:29;6.60;;;5.00;;
479;SDS011;226;48.606;9.096;2023-09-08T14:11:17;7.80;;;4.93;;
479;SDS011;226;48.606;9.096;2023-09-08T14:14:02;4.23;;;3.83;;
479;SDS011;226;48.606;9.096;2023-09-08T14:16:31;8.90;;;5.30;;
479;SDS011;226;48.606;9.096;2023-09-08T14:18:59;5.30;;;4.70;;
479;SDS011;226;48.606;9.096;2023-09-08T14:21:27;5.30;;;4.80;;
479;SDS011;226;48.606;9.096;2023-09-08T14:23:56;5.20;;;4.80;;
479;SDS011;226;48.606;9.096;2023-09-08T14:26:24;5.70;;;5.20;;
479;SDS011;226;48.606;9.096;2023-09-08T14:28:52;6.43;;;5.60;;
479;SDS011;226;48.606;9.096;2023-09-08T14:31:21;6.47;;;4.90;;
479;SDS011;226;48.606;9.096;2023-09-08T14:33:50;5.93;;;5.30;;
479;SDS011;226;48.606;9.096;2023-09-08T14:36:18;5.80;;;5.20;;
479;SDS011;226;48.606;9.096;2023-09-08T14:38:46;5.90;;;5.27;;
479;SDS011;226;48.606;9.096;2023-09-08T14:41:14;6.07;;;5.47;;
479;SDS011;226;48.606;9.096;2023-09-08T14:43:43;6.70;;;6.00;;
479;SDS011;226;48.606;9.096;2023-09-08T14:46:11;5.60;;;5.10;;
479;SDS011;226;48.606;9.096;2023-09-08T14:48:41;6.27;;;5.43;;
479;SDS011;226;48.606;9.096;2023-09-08T14:51:10;7.93;;;5.50;;
479;SDS011;226;48.606;9.096;2023-09-08T14:53:38;6.80;;;5.60;;
479;SDS011;226;48.606;9.096;2023-09-08T14:56:06;6.63;;;5.93;;
479;SDS011;226;48.606;9.096;2023-09-08T14:58:34;5.97;;;5.47;;
479;SDS011;226;48.606;9.096;2023-09-08T15:01:03;8.03;;;6.27;;
479;SDS011;226;48.606;9.096;2023-09-08T15:03:34;6.43;;;5.70;;
479;SDS011;226;48.606;9.096;2023-09-08T15:06:04;8.47;;;5.90;;
479;SDS011;226;48.606;9.096;2023-09-08T15:08:33;6.00;;;4.90;;
479;SDS011;226;48.606;9.096;2023-09-08T15:11:01;8.23;;;5.73;;
479;SDS011;226;48.606;9.096;2023-09-08T15:13:30;6.83;;;5.33;;
479;SDS011;226;48.606;9.096;2023-09-08T15:15:58;6.07;;;5.57;;
479;SDS011;226;48.606;9.096;2023-09-08T15:18:26;8.00;;;6.00;;
479;SDS011;226;48.606;9.096;2023-09-08T15:20:55;5.63;;;5.10;;
479;SDS011;226;48.606;9.096;2023-09-08T15:23:25;7.77;;;5.63;;
479;SDS011;226;48.606;9.096;2023-09-08T15:25:54;8.13;;;6.00;;
479;SDS011;226;48.606;9.096;2023-09-08T15:28:23;7.87;;;5.77;;
479;SDS011;226;48.606;9.096;2023-09-08T15:30:52;5.97;;;5.20;;
479;SDS011;226;48.606;9.096;2023-09-08T15:33:21;5.90;;;5.40;;
479;SDS011;226;48.606;9.096;2023-09-08T15:35:50;5.97;;;5.37;;
479;SDS011;226;48.606;9.096;2023-09-08T15:38:20;5.90;;;5.30;;
479;SDS011;226;48.606;9.096;2023-09-08T15:43:45;6.50;;;5.90;;
479;SDS011;226;48.606;9.096;2023-09-08T15:46:14;6.90;;;6.07;;
479;SDS011;226;48.606;9.096;2023-09-08T15:48:43;6.40;;;5.40;;
479;SDS011;226;48.606;9.096;2023-09-08T15:51:11;12.17;;;6.27;;
479;SDS011;226;48.606;9.096;2023-09-08T15:53:39;7.17;;;6.40;;